Brugelette, Belgium
Current Conditions -  °F | °C
As of 6:25 PM on Saturday 25 Oct 2014 (Local Time) from EBCV Reporting Station
Overcast Overcast  
Wind Chill: 55°   Ceiling: 4800
Heat Index: 55°   Visibility: 6mi
Dew Point: 52°   Wind: 2mph
Humidity: 88%   Direction: NA
Pressure: 30.15"   Gusts: NA
Location:  50.6°N, 3.85°E
Report Text: EBCV 251625Z AUTO VRB02KT 9999 FEW037/// OVC048/// 13/11 Q1021 BLU
Loading
Personal Weather Stations






























Interactive Weather Map
Tropical Storm Tracking
New forecast layout! Learn more

10-Day Weather Forecast

Advertisements
Track Severe Weather on mobile